Terminal Aerodrome Forecast
Issued by NWS Boston, MA

Home | Current Version | Previous Version | Text Only | Print | Product List | Glossary On
Versions: 1 2 3 4 5 6 7 8 9 10 11 12 13 14 15 16 17 18 19 20 21 22 23 24 25 26 27 28 29 30 31 32 33 34 35 36 37 38 39 40 41 42 43 44 45 46 47 48 49 50
000
FTUS41 KBOX 211503 AAB
TAFBDL
TAF AMD
KBDL 211503Z 2115/2218 00000KT 5SM BR BKN004
     FM211600 16003KT 6SM BR BKN007
     FM211700 16004KT P6SM BKN015
     FM211830 16006KT P6SM BKN035
     FM220300 22004KT P6SM BKN250
     FM220800 26005KT 5SM BR BKN250
     FM221000 27005KT 6SM BR BKN250
     FM221600 30009KT P6SM SCT250=

USA.gov is the U.S. government's official web portal to all federal, state and local government web resources and services.